Time;durP1;ratioP1;P1;durP2;ratioP2;P2;SDS_P1;SDS_P2;PMS_P1;PMS_P2;Temp;Humidity;BMP_temperature;BMP_pressure;BME280_temperature;BME280_humidity;BME280_pressure;Samples;Min_cycle;Max_cycle;Signal;HPM_P1;HPM_P2
2022/11/06 00:00:20;;;;;;;7.95;4.18;;;;;;;6.98;100.00;154284.28;5004829;28;20512;-72
2022/11/06 00:02:46;;;;;;;5.95;4.00;;;;;;;7.03;100.00;154297.09;5004172;28;20696;-71
2022/11/06 00:07:56;;;;;;;12.63;4.45;;;;;;;7.22;100.00;154344.44;5005067;28;20049;-72
2022/11/06 00:10:22;;;;;;;8.23;3.95;;;;;;;7.17;100.00;154331.63;5019417;28;20029;-73
2022/11/06 00:12:48;;;;;;;6.38;3.85;;;;;;;7.24;100.00;154348.28;5005830;28;20034;-72
2022/11/06 00:15:14;;;;;;;8.80;4.18;;;;;;;7.19;100.00;154338.00;4997300;28;20091;-72
2022/11/06 00:17:40;;;;;;;10.80;3.90;;;;;;;7.16;100.00;154330.38;4998776;28;20044;-73
2022/11/06 00:20:07;;;;;;;9.68;4.00;;;;;;;7.20;100.00;154340.59;5018742;28;20412;-73
2022/11/06 00:22:33;;;;;;;7.88;4.00;;;;;;;7.25;100.00;154350.81;5004916;28;20050;-73
2022/11/06 00:24:59;;;;;;;7.78;4.18;;;;;;;7.27;100.00;154355.94;5003662;28;20049;-73
2022/11/06 00:27:24;;;;;;;8.65;3.72;;;;;;;7.26;100.00;154354.69;5020320;28;20030;-72
2022/11/06 00:29:50;;;;;;;8.85;4.15;;;;;;;7.30;100.00;154364.91;5005436;28;20030;-72
2022/11/06 00:32:15;;;;;;;6.38;3.80;;;;;;;7.29;100.00;154361.06;4986888;28;20040;-72
2022/11/06 00:34:41;;;;;;;6.97;4.00;;;;;;;7.31;100.00;154367.50;4981731;28;20038;-72
2022/11/06 00:37:06;;;;;;;10.27;4.15;;;;;;;7.30;100.00;154363.66;4980919;28;20033;-72
2022/11/06 00:39:32;;;;;;;9.63;3.60;;;;;;;7.34;100.00;154373.88;5005702;28;20038;-73
2022/11/06 00:41:57;;;;;;;9.48;3.72;;;;;;;7.41;100.00;154393.06;5017496;28;20045;-72
2022/11/06 00:44:23;;;;;;;7.80;3.78;;;;;;;7.40;100.00;154390.53;5002681;28;20037;-73
2022/11/06 00:46:49;;;;;;;8.73;3.72;;;;;;;7.40;100.00;154389.22;5000377;28;20034;-72
2022/11/06 00:49:16;;;;;;;7.28;3.60;;;;;;;7.44;100.00;154398.19;4999575;28;20049;-72
2022/11/06 00:51:42;;;;;;;11.52;3.90;;;;;;;7.39;100.00;154387.97;4987035;28;20038;-72
2022/11/06 00:54:10;;;;;;;6.53;3.75;;;;;;;7.44;100.00;154399.50;4998229;28;20034;-72
2022/11/06 00:56:36;;;;;;;7.35;3.60;;;;;;;7.40;100.00;154390.53;4971253;28;20144;-72
2022/11/06 00:59:04;;;;;;;6.88;3.50;;;;;;;7.33;100.00;154371.34;4995455;28;20500;-72
2022/11/06 01:01:33;;;;;;;8.35;3.47;;;;;;;7.36;100.00;154379.00;5004557;28;20042;-73
2022/11/06 01:04:06;;;;;;;7.25;3.60;;;;;;;7.32;100.00;154370.03;5003777;28;20161;-72
2022/11/06 01:06:35;;;;;;;6.68;3.63;;;;;;;7.37;100.00;154381.56;4992321;28;20033;-73
2022/11/06 01:09:03;;;;;;;7.05;3.67;;;;;;;7.25;100.00;154350.81;5022349;28;20846;-73
2022/11/06 01:11:40;;;;;;;6.00;3.25;;;;;;;7.33;100.00;154371.34;4986707;28;20029;-73
2022/11/06 01:14:07;;;;;;;9.75;3.75;;;;;;;7.31;100.00;154366.19;5004507;28;20407;-73
2022/11/06 01:16:34;;;;;;;8.15;3.22;;;;;;;7.19;100.00;154338.00;5011527;28;20033;-73
2022/11/06 01:19:00;;;;;;;7.25;3.30;;;;;;;7.21;100.00;154341.88;5005135;28;20052;-73
2022/11/06 01:21:34;;;;;;;9.05;3.80;;;;;;;7.17;100.00;154332.91;5003717;28;20034;-73
2022/11/06 01:24:04;;;;;;;5.40;3.15;;;;;;;7.24;100.00;154348.28;4980569;28;20109;-73
2022/11/06 01:26:30;;;;;;;11.18;3.80;;;;;;;7.26;100.00;154353.41;4983807;28;20033;-73
2022/11/06 01:28:56;;;;;;;8.38;3.58;;;;;;;7.32;100.00;154370.03;5005114;28;20816;-73
2022/11/06 01:31:25;;;;;;;6.85;3.40;;;;;;;7.31;100.00;154367.50;5002758;28;20033;-73
2022/11/06 01:33:50;;;;;;;12.10;3.50;;;;;;;7.34;100.00;154373.88;5003624;28;20038;-74
2022/11/06 01:36:18;;;;;;;7.97;3.40;;;;;;;7.41;100.00;154391.81;5002797;28;20040;-73
2022/11/06 01:38:46;;;;;;;6.90;3.28;;;;;;;7.41;100.00;154391.81;5004382;28;20041;-73
2022/11/06 01:41:19;;;;;;;6.80;3.10;;;;;;;7.44;100.00;154399.50;4986739;28;20034;-73
2022/11/06 01:43:49;;;;;;;8.15;3.85;;;;;;;7.45;100.00;154402.03;4999882;28;20061;-73
2022/11/06 01:46:17;;;;;;;8.57;3.72;;;;;;;7.46;100.00;154403.31;5002245;28;20643;-72
2022/11/06 01:48:47;;;;;;;6.85;3.42;;;;;;;7.43;100.00;154395.66;4998531;28;20096;-73
2022/11/06 01:51:14;;;;;;;10.50;3.30;;;;;;;7.47;100.00;154405.88;5000309;28;20037;-73
2022/11/06 01:53:40;;;;;;;5.63;3.30;;;;;;;7.47;100.00;154405.88;5002233;28;20129;-73
2022/11/06 01:56:09;;;;;;;7.30;4.00;;;;;;;7.44;100.00;154398.19;4985654;28;20050;-73
2022/11/06 01:58:39;;;;;;;9.68;3.80;;;;;;;7.54;100.00;154423.81;5002235;28;20144;-73
2022/11/06 02:01:09;;;;;;;5.68;3.28;;;;;;;7.51;100.00;154416.13;4999310;28;20062;-73
2022/11/06 02:03:36;;;;;;;7.25;3.70;;;;;;;7.55;100.00;154426.34;4995305;28;20057;-72
2022/11/06 02:06:03;;;;;;;7.45;3.42;;;;;;;7.56;100.00;154428.94;5001258;28;20037;-73
2022/11/06 02:08:28;;;;;;;9.18;3.78;;;;;;;7.55;100.00;154426.34;5003021;28;20121;-73
2022/11/06 02:10:55;;;;;;;7.45;3.25;;;;;;;7.60;100.00;154439.19;5002441;28;20117;-73
2022/11/06 02:13:29;;;;;;;8.15;3.65;;;;;;;7.58;100.00;154434.06;4985291;28;20030;-73
2022/11/06 02:15:55;;;;;;;6.70;3.65;;;;;;;7.60;100.00;154440.44;5003172;28;20130;-72
2022/11/06 02:18:44;;;;;;;5.85;3.20;;;;;;;7.56;100.00;154428.94;4998319;28;20172;-73
2022/11/06 02:21:24;;;;;;;7.97;3.83;;;;;;;7.59;100.00;154437.91;4978633;28;20042;-73
2022/11/06 02:24:15;;;;;;;8.75;3.42;;;;;;;7.60;100.00;154440.44;4997966;28;20076;-73
2022/11/06 02:27:14;;;;;;;6.82;3.53;;;;;;;7.57;100.00;154432.78;5003765;28;20029;-72
2022/11/06 02:29:51;;;;;;;6.68;3.35;;;;;;;7.60;100.00;154440.44;4994066;28;20569;-72
2022/11/06 02:32:38;;;;;;;8.02;3.50;;;;;;;7.62;100.00;154444.28;5005856;28;20038;-73
2022/11/06 02:35:26;;;;;;;9.25;3.67;;;;;;;7.63;100.00;154445.56;4986148;28;20136;-73
2022/11/06 02:37:57;;;;;;;9.07;3.67;;;;;;;7.52;100.00;154419.97;5002896;28;20038;-73
2022/11/06 02:40:28;;;;;;;7.75;3.75;;;;;;;7.68;100.00;154459.66;5010084;28;20624;-72
2022/11/06 02:42:56;;;;;;;6.47;3.60;;;;;;;7.65;100.00;154450.69;4990602;28;20065;-72
2022/11/06 02:45:25;;;;;;;8.27;3.30;;;;;;;7.64;100.00;154448.16;4991273;28;20483;-72
2022/11/06 02:47:54;;;;;;;9.15;3.30;;;;;;;7.64;100.00;154448.16;5010673;28;20521;-71
2022/11/06 02:50:29;;;;;;;12.13;3.50;;;;;;;7.60;100.00;154440.44;4973248;28;20689;-72
2022/11/06 02:53:01;;;;;;;6.60;3.42;;;;;;;7.60;100.00;154439.19;5005443;28;20499;-70
2022/11/06 02:55:33;;;;;;;11.65;3.90;;;;;;;7.59;100.00;154436.59;5007638;28;20839;-74
2022/11/06 02:58:13;;;;;;;7.55;3.53;;;;;;;7.56;100.00;154430.22;5006627;28;20124;-73
2022/11/06 03:00:43;;;;;;;8.82;3.42;;;;;;;7.56;100.00;154428.94;4992074;28;20053;-71
2022/11/06 03:03:20;;;;;;;6.38;3.40;;;;;;;7.57;100.00;154432.78;5007212;28;20041;-71
2022/11/06 03:05:52;;;;;;;6.88;3.38;;;;;;;7.63;100.00;154446.88;5004909;28;20496;-72
2022/11/06 03:08:30;;;;;;;7.47;3.35;;;;;;;7.62;100.00;154444.28;5006444;28;20084;-71
2022/11/06 03:11:19;;;;;;;9.43;3.50;;;;;;;7.64;100.00;154449.41;5006593;28;20037;-72
2022/11/06 03:13:47;;;;;;;11.60;3.47;;;;;;;7.66;100.00;154454.53;4989402;28;20541;-72
2022/11/06 03:16:32;;;;;;;8.32;3.78;;;;;;;7.65;100.00;154452.00;4991059;28;20037;-72
2022/11/06 03:19:06;;;;;;;11.10;3.80;;;;;;;7.59;100.00;154436.59;5004328;28;20404;-71
2022/11/06 03:21:45;;;;;;;5.22;3.45;;;;;;;7.56;100.00;154428.94;5005173;28;20105;-72
2022/11/06 03:24:16;;;;;;;12.40;3.97;;;;;;;7.57;100.00;154432.78;5004655;28;20045;-72
2022/11/06 03:26:52;;;;;;;7.63;3.15;;;;;;;7.61;100.00;154441.75;5006956;28;20069;-71
2022/11/06 03:29:33;;;;;;;8.55;3.60;;;;;;;7.53;100.00;154421.25;5006782;28;20053;-71
2022/11/06 03:32:14;;;;;;;8.82;3.65;;;;;;;7.48;100.00;154408.44;5007528;28;20034;-72
2022/11/06 03:35:06;;;;;;;7.38;3.33;;;;;;;7.53;100.00;154421.25;5001613;28;20546;-72
2022/11/06 03:37:54;;;;;;;6.40;3.60;;;;;;;7.56;100.00;154430.22;4999355;28;20041;-72
2022/11/06 03:40:25;;;;;;;6.65;3.08;;;;;;;7.61;100.00;154441.75;4975431;28;20037;-71
2022/11/06 03:42:54;;;;;;;8.48;3.45;;;;;;;7.68;100.00;154458.38;5009438;28;20631;-72
2022/11/06 03:45:23;;;;;;;6.35;3.47;;;;;;;7.65;100.00;154450.69;5006175;28;20042;-73
2022/11/06 03:48:02;;;;;;;6.38;3.05;;;;;;;7.63;100.00;154446.88;5006502;28;20038;-72
2022/11/06 03:51:03;;;;;;;8.52;3.45;;;;;;;7.69;100.00;154462.22;4984128;28;20021;-73
2022/11/06 03:53:36;;;;;;;7.43;3.30;;;;;;;7.68;100.00;154459.66;4971542;28;20061;-72
2022/11/06 03:56:11;;;;;;;9.77;3.17;;;;;;;7.73;100.00;154471.19;4974229;28;20040;-72
2022/11/06 03:58:40;;;;;;;8.25;3.55;;;;;;;7.76;100.00;154478.84;4995846;28;20099;-72
2022/11/06 04:01:09;;;;;;;7.13;2.67;;;;;;;7.76;100.00;154480.16;5001760;28;20040;-72
2022/11/06 04:03:42;;;;;;;6.30;3.00;;;;;;;7.75;100.00;154477.59;4989478;28;20568;-72
2022/11/06 04:06:24;;;;;;;8.60;3.40;;;;;;;7.77;100.00;154482.69;5007875;28;20034;-72
2022/11/06 04:14:28;;;;;;;4.68;2.97;;;;;;;7.80;100.00;154489.13;5000627;28;20073;-72
2022/11/06 04:16:59;;;;;;;6.20;3.03;;;;;;;7.83;100.00;154496.78;5004020;28;20090;-73
2022/11/06 04:19:25;;;;;;;6.88;2.97;;;;;;;7.82;100.00;154492.94;4988917;28;20038;-72
2022/11/06 04:22:12;;;;;;;5.40;3.17;;;;;;;7.80;100.00;154489.13;5022493;28;20447;-73
2022/11/06 04:28:53;;;;;;;9.27;3.45;;;;;;;7.58;100.00;154435.31;5007412;28;20069;-72
2022/11/06 04:31:40;;;;;;;7.25;3.60;;;;;;;7.52;100.00;154419.97;5022242;28;20022;-72
2022/11/06 04:34:31;;;;;;;8.80;3.50;;;;;;;7.50;100.00;154413.59;5004452;28;20096;-72
2022/11/06 04:37:46;;;;;;;8.57;3.38;;;;;;;7.44;100.00;154399.50;4986692;28;20085;-72
2022/11/06 04:40:19;;;;;;;10.35;3.30;;;;;;;7.47;100.00;154407.16;5000150;28;20111;-72
2022/11/06 04:42:57;;;;;;;8.45;3.17;;;;;;;7.45;100.00;154400.78;5006319;28;20037;-72
2022/11/06 04:45:27;;;;;;;8.82;3.20;;;;;;;7.45;100.00;154400.78;4988652;28;20041;-72
2022/11/06 04:47:53;;;;;;;9.60;3.65;;;;;;;7.47;100.00;154407.16;5005969;28;20038;-72
2022/11/06 04:50:22;;;;;;;7.00;3.00;;;;;;;7.51;100.00;154417.41;5006185;28;20514;-72
2022/11/06 04:52:48;;;;;;;5.10;3.15;;;;;;;7.45;100.00;154402.03;4983181;28;20030;-72
2022/11/06 04:55:14;;;;;;;10.20;3.67;;;;;;;7.45;100.00;154400.78;4989246;28;20046;-72
2022/11/06 04:57:40;;;;;;;9.48;3.10;;;;;;;7.46;100.00;154403.31;4973335;28;20034;-72
2022/11/06 05:00:06;;;;;;;6.85;3.15;;;;;;;7.50;100.00;154413.59;5005434;28;20522;-72
2022/11/06 05:02:32;;;;;;;5.55;3.10;;;;;;;7.43;100.00;154395.66;4990050;28;20076;-72
2022/11/06 05:04:57;;;;;;;9.10;3.15;;;;;;;7.45;100.00;154402.03;5004312;28;20058;-72
2022/11/06 05:07:23;;;;;;;8.60;3.00;;;;;;;7.43;100.00;154395.66;5005283;28;20860;-72
2022/11/06 05:09:49;;;;;;;7.60;3.22;;;;;;;7.38;100.00;154385.44;5006420;28;20030;-72
2022/11/06 05:12:14;;;;;;;6.93;2.80;;;;;;;7.47;100.00;154407.16;5004387;28;20044;-72
2022/11/06 05:14:40;;;;;;;12.93;3.22;;;;;;;7.45;100.00;154400.78;4988470;28;20119;-72
2022/11/06 05:17:06;;;;;;;6.95;3.30;;;;;;;7.55;100.00;154426.34;5021439;28;20037;-72
2022/11/06 05:19:31;;;;;;;7.03;3.55;;;;;;;7.55;100.00;154427.69;5005062;28;20033;-72
2022/11/06 05:24:41;;;;;;;10.70;2.78;;;;;;;7.62;100.00;154443.03;4987298;28;20096;-72
2022/11/06 05:27:07;;;;;;;8.63;3.20;;;;;;;7.68;100.00;154458.38;5005109;28;20046;-72
2022/11/06 05:29:33;;;;;;;7.78;2.92;;;;;;;7.66;100.00;154454.53;4999602;28;20034;-71
2022/11/06 05:31:58;;;;;;;11.07;3.20;;;;;;;7.73;100.00;154472.47;4979321;28;20239;-72
2022/11/06 05:34:24;;;;;;;6.45;2.95;;;;;;;7.71;100.00;154466.09;5004337;28;20113;-72
2022/11/06 05:36:49;;;;;;;7.65;2.97;;;;;;;7.73;100.00;154472.47;5005161;28;20415;-72
2022/11/06 05:39:15;;;;;;;7.03;2.58;;;;;;;7.74;100.00;154475.06;4992496;28;20491;-73
2022/11/06 05:41:41;;;;;;;8.77;3.42;;;;;;;7.72;100.00;154468.63;5006883;28;20030;-72
2022/11/06 05:44:06;;;;;;;5.35;2.63;;;;;;;7.77;100.00;154481.44;4988000;28;20101;-72
2022/11/06 05:46:32;;;;;;;8.93;2.92;;;;;;;7.75;100.00;154476.31;4973883;28;20041;-73
2022/11/06 05:48:57;;;;;;;8.05;2.88;;;;;;;7.77;100.00;154482.69;5005582;28;20038;-72
2022/11/06 05:51:23;;;;;;;9.27;2.70;;;;;;;7.76;100.00;154478.84;5020121;28;20127;-73
2022/11/06 05:53:49;;;;;;;10.43;2.80;;;;;;;7.77;100.00;154481.44;4988787;28;20511;-73
2022/11/06 05:56:14;;;;;;;5.97;2.80;;;;;;;7.77;100.00;154481.44;5020904;28;20489;-73
2022/11/06 05:58:40;;;;;;;6.45;2.80;;;;;;;7.70;100.00;154463.50;4989134;28;20504;-73
2022/11/06 06:01:06;;;;;;;4.88;2.58;;;;;;;7.78;100.00;154485.28;5006341;28;20046;-73
2022/11/06 06:03:31;;;;;;;10.05;2.67;;;;;;;7.76;100.00;154478.84;4992074;28;20419;-72
2022/11/06 06:05:57;;;;;;;8.13;3.10;;;;;;;7.70;100.00;154464.78;4981051;28;20054;-72
2022/11/06 06:08:22;;;;;;;6.43;3.03;;;;;;;7.66;100.00;154453.25;4992969;28;20380;-72
2022/11/06 06:10:48;;;;;;;5.80;2.50;;;;;;;7.73;100.00;154471.19;5009508;28;20034;-72
2022/11/06 06:13:14;;;;;;;9.15;2.85;;;;;;;7.73;100.00;154471.19;4992306;28;20427;-72
2022/11/06 06:15:41;;;;;;;5.72;2.53;;;;;;;7.76;100.00;154478.84;4999139;28;20064;-72
2022/11/06 06:18:08;;;;;;;7.28;3.00;;;;;;;7.88;100.00;154508.34;5009404;28;20419;-72
2022/11/06 06:20:35;;;;;;;11.70;3.25;;;;;;;7.94;100.00;154524.97;4992185;28;20487;-72
2022/11/06 06:23:00;;;;;;;8.10;3.13;;;;;;;7.91;100.00;154517.31;5006651;28;20049;-72
2022/11/06 06:25:27;;;;;;;7.32;2.65;;;;;;;7.87;100.00;154507.03;5007618;28;20037;-72
2022/11/06 06:27:53;;;;;;;8.38;2.40;;;;;;;7.96;100.00;154528.81;4973468;28;20037;-72
2022/11/06 06:30:20;;;;;;;7.10;2.75;;;;;;;7.95;100.00;154527.56;5008022;28;20399;-73
2022/11/06 06:32:46;;;;;;;9.07;2.85;;;;;;;7.98;100.00;154533.94;5006161;28;20037;-72
2022/11/06 06:35:12;;;;;;;6.90;2.50;;;;;;;7.98;100.00;154533.94;4991307;28;20037;-72
2022/11/06 06:37:38;;;;;;;7.32;2.55;;;;;;;7.96;100.00;154528.81;5022493;28;20042;-72
2022/11/06 06:40:04;;;;;;;8.00;2.75;;;;;;;7.96;100.00;154528.81;5008654;28;20104;-72
2022/11/06 06:42:30;;;;;;;7.40;2.92;;;;;;;7.92;100.00;154519.84;4991270;28;20061;-72
2022/11/06 06:44:56;;;;;;;8.18;2.65;;;;;;;7.95;100.00;154527.56;4991991;28;20534;-72
2022/11/06 06:47:21;;;;;;;8.45;2.95;;;;;;;7.92;100.00;154518.56;5007887;28;20033;-72
2022/11/06 06:49:47;;;;;;;9.55;2.70;;;;;;;8.00;100.00;154539.06;5008779;28;20091;-72
2022/11/06 06:52:13;;;;;;;6.50;2.45;;;;;;;8.04;100.00;154548.03;5006416;28;20049;-72
2022/11/06 06:54:40;;;;;;;6.30;2.30;;;;;;;8.03;100.00;154546.75;5008684;28;20038;-72
2022/11/06 06:57:08;;;;;;;6.18;2.63;;;;;;;8.04;100.00;154549.28;4967753;28;20057;-72
2022/11/06 06:59:34;;;;;;;4.68;2.10;;;;;;;8.04;100.00;154549.28;5009808;28;20037;-73
2022/11/06 07:02:00;;;;;;;4.93;2.80;;;;;;;8.03;100.00;154546.75;5008349;28;20500;-73
2022/11/06 07:04:26;;;;;;;7.15;2.75;;;;;;;8.07;100.00;154555.72;4991124;28;20130;-72
2022/11/06 07:06:53;;;;;;;7.03;2.50;;;;;;;8.06;100.00;154554.47;5004258;28;20112;-72
2022/11/06 07:09:20;;;;;;;5.38;2.25;;;;;;;8.08;100.00;154559.56;4973861;28;20634;-72
2022/11/06 07:11:45;;;;;;;9.88;2.78;;;;;;;8.13;100.00;154572.34;5023167;28;20112;-72
2022/11/06 07:14:11;;;;;;;7.50;2.67;;;;;;;8.21;100.00;154591.56;5007068;28;20134;-73
2022/11/06 07:16:37;;;;;;;5.55;2.40;;;;;;;8.15;100.00;154577.47;5010545;28;20042;-72
2022/11/06 07:19:02;;;;;;;8.60;2.55;;;;;;;8.18;100.00;154585.19;5007735;28;20079;-71
2022/11/06 07:21:28;;;;;;;6.93;2.47;;;;;;;8.28;100.00;154609.50;4994872;28;20123;-72
2022/11/06 07:23:53;;;;;;;6.03;2.45;;;;;;;8.32;100.00;154618.47;4991168;28;20041;-72
2022/11/06 07:26:19;;;;;;;7.45;1.95;;;;;;;8.29;100.00;154612.09;5024293;28;20304;-73
2022/11/06 07:28:45;;;;;;;5.32;2.25;;;;;;;8.33;100.00;154622.34;5008282;28;20507;-72
2022/11/06 07:31:13;;;;;;;8.98;2.90;;;;;;;8.35;100.00;154626.19;5005860;28;20034;-72
2022/11/06 07:33:39;;;;;;;8.70;2.10;;;;;;;8.32;100.00;154619.75;4976090;28;20033;-72
2022/11/06 07:36:08;;;;;;;5.50;2.05;;;;;;;8.39;100.00;154636.41;4991157;28;20037;-72
2022/11/06 07:38:35;;;;;;;7.18;2.30;;;;;;;8.39;100.00;154636.41;4983743;28;20056;-72
2022/11/06 07:41:05;;;;;;;9.07;2.25;;;;;;;8.33;100.00;154621.06;5008644;28;20052;-72
2022/11/06 07:43:31;;;;;;;7.15;2.00;;;;;;;8.39;100.00;154636.41;4980062;28;20144;-72
2022/11/06 07:46:01;;;;;;;6.88;2.08;;;;;;;8.45;100.00;154651.81;5008637;28;20052;-73
2022/11/06 07:48:30;;;;;;;7.10;1.92;;;;;;;8.50;100.00;154664.66;5008629;28;20033;-72
2022/11/06 07:50:56;;;;;;;6.50;2.38;;;;;;;8.48;100.00;154659.53;5009230;28;20060;-73
2022/11/06 07:53:22;;;;;;;6.35;2.42;;;;;;;8.49;100.00;154660.81;4991427;28;20592;-72
2022/11/06 07:55:53;;;;;;;7.18;2.67;;;;;;;8.52;100.00;154669.78;5005822;28;20049;-75
2022/11/06 07:58:20;;;;;;;6.68;2.08;;;;;;;8.57;100.00;154682.59;5006573;28;20048;-72
2022/11/06 08:00:48;;;;;;;5.25;2.30;;;;;;;8.58;100.00;154685.13;5006912;28;20105;-72
2022/11/06 08:03:14;;;;;;;6.68;2.47;;;;;;;8.62;100.00;154692.84;4990266;28;20184;-72
2022/11/06 08:05:40;;;;;;;7.38;2.40;;;;;;;8.58;100.00;154685.13;5006161;28;20562;-72
2022/11/06 08:08:05;;;;;;;10.45;2.25;;;;;;;8.58;100.00;154683.88;5022877;28;20045;-73
2022/11/06 08:10:31;;;;;;;7.13;2.00;;;;;;;8.56;100.00;154680.03;4990577;28;20499;-72
2022/11/06 08:13:00;;;;;;;7.40;2.55;;;;;;;8.60;100.00;154689.00;5008919;28;20551;-73
2022/11/06 08:15:26;;;;;;;5.63;2.38;;;;;;;8.62;100.00;154694.09;5021851;28;20509;-71
2022/11/06 08:17:52;;;;;;;6.35;2.17;;;;;;;8.63;100.00;154695.44;4962689;28;20045;-72
2022/11/06 08:20:18;;;;;;;9.27;2.75;;;;;;;8.63;100.00;154696.69;5007463;28;20041;-73
2022/11/06 08:22:43;;;;;;;6.15;1.90;;;;;;;8.67;100.00;154706.94;4990080;28;20403;-72
2022/11/06 08:25:09;;;;;;;6.05;2.33;;;;;;;8.75;100.00;154726.16;4987319;28;20042;-72
2022/11/06 08:27:35;;;;;;;5.50;2.10;;;;;;;8.75;100.00;154726.16;5006576;28;20064;-73
2022/11/06 08:30:01;;;;;;;7.13;1.98;;;;;;;8.84;100.00;154747.97;5002845;28;20042;-72
2022/11/06 08:32:27;;;;;;;8.15;2.13;;;;;;;8.86;100.00;154754.34;4987424;28;20119;-72
2022/11/06 08:34:52;;;;;;;8.82;2.35;;;;;;;8.84;100.00;154749.22;5007635;28;20026;-73
2022/11/06 08:37:19;;;;;;;5.28;2.03;;;;;;;8.90;100.00;154764.59;4989456;28;20044;-72
2022/11/06 08:39:45;;;;;;;5.88;2.00;;;;;;;8.95;100.00;154776.16;5005277;28;20117;-73
2022/11/06 08:42:11;;;;;;;9.55;2.10;;;;;;;8.96;100.00;154778.69;4986552;28;20044;-72
2022/11/06 08:44:37;;;;;;;8.00;2.53;;;;;;;9.01;100.00;154791.53;5003165;28;20034;-72
2022/11/06 08:47:03;;;;;;;4.70;2.05;;;;;;;8.99;100.00;154785.13;4971915;28;20455;-72
2022/11/06 08:49:28;;;;;;;5.43;1.95;;;;;;;9.05;100.00;154801.75;5006445;28;20038;-72
2022/11/06 08:51:54;;;;;;;4.70;1.77;;;;;;;9.08;100.00;154808.16;4989567;28;20037;-73
2022/11/06 08:54:20;;;;;;;8.02;1.90;;;;;;;9.13;100.00;154822.25;5004167;28;20065;-72
2022/11/06 08:56:45;;;;;;;5.03;1.85;;;;;;;9.15;100.00;154826.09;5022267;28;20411;-73
2022/11/06 08:59:11;;;;;;;8.05;1.88;;;;;;;9.19;100.00;154836.34;5004764;28;20500;-72
2022/11/06 09:01:37;;;;;;;14.32;2.65;;;;;;;9.23;100.00;154845.34;5007175;28;20408;-73
2022/11/06 09:04:03;;;;;;;6.22;1.85;;;;;;;9.29;100.00;154862.03;4999406;28;20403;-72
2022/11/06 09:06:28;;;;;;;7.20;2.20;;;;;;;9.33;100.00;154871.00;4998401;28;20049;-72
2022/11/06 09:08:55;;;;;;;8.52;1.90;;;;;;;9.32;100.00;154868.41;5025748;28;20137;-72
2022/11/06 09:11:21;;;;;;;6.68;1.70;;;;;;;9.45;100.00;154900.47;5006627;28;20046;-72
2022/11/06 09:13:46;;;;;;;5.63;1.77;;;;;;;9.48;100.00;154909.44;5005798;28;20044;-72
2022/11/06 09:16:12;;;;;;;5.03;1.77;;;;;;;9.55;100.00;154927.41;5006299;28;20060;-72
2022/11/06 09:18:38;;;;;;;6.10;1.77;;;;;;;9.61;100.00;154941.50;4972871;28;20065;-72
2022/11/06 09:21:03;;;;;;;7.68;1.85;;;;;;;9.69;100.00;154962.00;4988569;28;20055;-72
2022/11/06 09:23:29;;;;;;;5.43;1.60;;;;;;;9.73;100.00;154972.25;5002213;28;20117;-72
2022/11/06 09:25:56;;;;;;;9.50;2.13;;;;;;;9.83;100.00;154996.66;5006194;28;20422;-72
2022/11/06 09:28:22;;;;;;;5.65;1.70;;;;;;;9.91;100.00;155015.88;5021326;28;20034;-72
2022/11/06 09:30:47;;;;;;;5.38;1.60;;;;;;;9.95;100.00;155026.13;4989622;28;20400;-72
2022/11/06 09:33:13;;;;;;;7.72;1.83;;;;;;;9.92;100.00;155019.69;4988013;28;20048;-72
2022/11/06 09:35:39;;;;;;;5.43;1.65;;;;;;;9.97;100.00;155030.00;4986041;28;20045;-73
2022/11/06 09:38:09;;;;;;;3.45;1.60;;;;;;;10.05;100.00;155050.50;4990139;28;20126;-72
2022/11/06 09:40:57;;;;;;;6.45;1.70;;;;;;;10.02;100.00;155044.09;5016189;28;20042;-72
2022/11/06 09:43:48;;;;;;;4.35;1.75;;;;;;;10.10;100.00;155063.34;4991532;28;20041;-72
2022/11/06 09:46:23;;;;;;;8.30;1.77;;;;;;;10.08;100.00;155058.22;5000243;28;20042;-72
2022/11/06 09:49:19;;;;;;;6.07;1.90;;;;;;;10.11;100.00;155067.19;4993336;28;20038;-72
2022/11/06 09:51:53;;;;;;;5.95;1.50;;;;;;;10.21;100.00;155091.56;5011521;28;20049;-72
2022/11/06 09:54:24;;;;;;;6.55;1.63;;;;;;;10.30;100.00;155114.69;5016963;28;20037;-72
2022/11/06 09:57:02;;;;;;;5.88;1.63;;;;;;;10.29;100.00;155110.78;5007827;28;20040;-72
2022/11/06 09:59:32;;;;;;;3.67;1.70;;;;;;;10.27;100.00;155105.66;5009837;28;20034;-72
2022/11/06 10:02:00;;;;;;;8.05;2.20;;;;;;;10.28;100.00;155109.53;4992780;28;20034;-72
2022/11/06 10:04:43;;;;;;;4.93;1.38;;;;;;;10.28;100.00;155109.53;5002648;28;20038;-72
2022/11/06 10:07:26;;;;;;;6.78;1.60;;;;;;;10.36;100.00;155128.81;5006700;28;20034;-72
2022/11/06 10:09:51;;;;;;;5.17;1.50;;;;;;;10.39;100.00;155136.47;4992762;28;20052;-72
2022/11/06 10:12:56;;;;;;;5.05;1.40;;;;;;;10.41;100.00;155140.34;4992496;28;20279;-72
2022/11/06 10:15:58;;;;;;;5.45;1.63;;;;;;;10.47;100.00;155157.03;5007534;28;20041;-72
2022/11/06 10:18:42;;;;;;;7.30;1.48;;;;;;;10.50;100.00;155163.44;4991415;28;20399;-72
2022/11/06 10:21:17;;;;;;;2.95;1.30;;;;;;;10.55;100.00;155174.94;5004274;28;20041;-73
2022/11/06 10:23:58;;;;;;;7.07;1.80;;;;;;;10.61;100.00;155191.66;4989738;28;20477;-73
2022/11/06 10:26:40;;;;;;;6.85;1.60;;;;;;;10.68;100.00;155209.63;4992615;28;20038;-73
2022/11/06 10:29:27;;;;;;;7.07;1.90;;;;;;;10.62;100.00;155194.19;5005896;28;20052;-73
2022/11/06 10:32:36;;;;;;;7.00;1.23;;;;;;;10.70;100.00;155213.47;4992615;28;20042;-73
2022/11/06 10:35:17;;;;;;;4.93;1.35;;;;;;;10.74;100.00;155222.41;4983575;28;20132;-72
2022/11/06 10:38:13;;;;;;;6.20;1.70;;;;;;;10.75;100.00;155226.28;5009378;28;20487;-72
2022/11/06 10:40:42;;;;;;;6.07;1.63;;;;;;;10.84;100.00;155248.09;5008940;28;20038;-73
2022/11/06 10:43:30;;;;;;;8.13;1.48;;;;;;;10.85;100.00;155251.97;5008817;28;20034;-72
2022/11/06 10:46:07;;;;;;;5.05;1.63;;;;;;;10.85;100.00;155251.97;5005347;28;20733;-72
2022/11/06 10:48:39;;;;;;;5.47;1.63;;;;;;;10.88;100.00;155258.34;5005034;28;20118;-72
2022/11/06 10:51:25;;;;;;;4.13;1.38;;;;;;;10.95;100.00;155275.06;4992224;28;20042;-72
2022/11/06 10:54:06;;;;;;;7.13;1.70;;;;;;;10.99;100.00;155285.31;4988305;28;20066;-71
2022/11/06 10:56:59;;;;;;;5.32;1.40;;;;;;;11.05;100.00;155300.72;4979034;28;20060;-72
2022/11/06 10:59:25;;;;;;;9.20;1.52;;;;;;;11.04;100.00;155299.44;5010307;28;20038;-72
2022/11/06 11:01:51;;;;;;;5.13;1.65;;;;;;;11.18;100.00;155332.81;5009826;28;20633;-72
2022/11/06 11:04:16;;;;;;;5.97;1.65;;;;;;;11.28;100.00;155359.78;4990927;28;20040;-72
2022/11/06 11:06:42;;;;;;;4.30;1.48;;;;;;;11.35;99.83;155375.16;4991288;28;20065;-72
2022/11/06 11:09:32;;;;;;;3.72;1.38;;;;;;;11.47;100.00;155405.94;4989381;28;20046;-73
2022/11/06 11:11:59;;;;;;;3.88;1.40;;;;;;;11.56;100.00;155429.06;4992506;28;20026;-73
2022/11/06 11:14:30;;;;;;;6.03;1.83;;;;;;;11.79;100.00;155485.53;5007009;28;20037;-73
2022/11/06 11:17:00;;;;;;;4.55;1.67;;;;;;;12.11;98.65;155565.22;5008513;28;20158;-73
2022/11/06 11:19:42;;;;;;;4.13;1.20;;;;;;;12.31;95.50;155615.31;4991226;28;20038;-73
2022/11/06 11:22:14;;;;;;;5.88;1.60;;;;;;;12.34;95.02;155622.97;4989339;28;20685;-72
2022/11/06 11:25:02;;;;;;;6.63;1.43;;;;;;;12.35;93.60;155625.56;5006901;28;20497;-72
2022/11/06 11:27:31;;;;;;;4.63;1.40;;;;;;;12.41;94.48;155640.97;4965042;28;20366;-72
2022/11/06 11:29:57;;;;;;;6.82;1.30;;;;;;;12.40;92.99;155638.44;4986724;28;20120;-72
2022/11/06 11:32:23;;;;;;;5.07;1.60;;;;;;;12.34;94.30;155622.97;5001091;28;20038;-72
2022/11/06 11:34:54;;;;;;;6.57;1.60;;;;;;;12.17;94.74;155580.66;4987322;28;20137;-72
2022/11/06 11:37:30;;;;;;;4.88;1.70;;;;;;;12.23;96.63;155597.31;4995135;28;20066;-73
2022/11/06 11:40:19;;;;;;;4.85;2.20;;;;;;;12.54;95.05;155673.09;4997532;28;20120;-72
2022/11/06 11:42:45;;;;;;;11.85;1.73;;;;;;;12.75;92.11;155725.75;5006756;28;20052;-73
2022/11/06 11:45:16;;;;;;;4.85;1.50;;;;;;;12.80;92.01;155738.63;5005768;28;20041;-72
2022/11/06 11:47:45;;;;;;;2.80;1.30;;;;;;;12.75;91.65;155727.06;4990541;28;20146;-72
2022/11/06 11:50:20;;;;;;;3.67;1.38;;;;;;;12.82;90.11;155743.75;5007582;28;20042;-73
2022/11/06 11:52:50;;;;;;;5.07;1.30;;;;;;;12.79;90.92;155737.34;4989302;28;20033;-72
2022/11/06 11:55:20;;;;;;;5.15;1.15;;;;;;;12.82;91.95;155745.03;5003887;28;20030;-72